Viiking — ES2412 — position and weather

sailwx.info

Track history (hours):
 
Tides and Currents Weather Stations Pressure Air Temp Water Temp Dewpoint Dewpoint Depression Visibility Wind Speed Wind Dir Waves Ship Positions

Viiking

Last reported at 2014-Dec-20 07:31 UTC. Time now 2014-Dec-20 08:04 UTC.
Position N 59°27' E 024°42'.

Length 40 m; draft 2 m.

Type: Other ship. MMSI: 276342000.

Date/timePositionNaut miles runAvg speedWind from/ knotsBaromVisibWave heightAir tempDewpointWater temp
2014-Dec-20 07:31N 59°27' E 024°42'0 0.0
2014-Dec-20 06:28N 59°27' E 024°42'0 0.0
2014-Dec-20 05:28N 59°27' E 024°42'0 0.0
2014-Dec-20 04:31N 59°27' E 024°42'0 0.0
2014-Dec-20 03:31N 59°27' E 024°42'0 0.0
2014-Dec-20 02:32N 59°27' E 024°42'0 0.0
2014-Dec-20 01:31N 59°27' E 024°42'0 0.0
2014-Dec-20 00:31N 59°27' E 024°42'0 0.0
2014-Dec-19 23:29N 59°27' E 024°42'0 0.0
2014-Dec-19 22:31N 59°27' E 024°42'0 0.0
2014-Dec-19 21:28N 59°27' E 024°42'0 0.0
2014-Dec-19 20:31N 59°27' E 024°42'0 0.0
2014-Dec-19 19:32N 59°27' E 024°42'0 0.0
2014-Dec-19 18:31N 59°27' E 024°42'0 0.0
2014-Dec-19 17:31N 59°27' E 024°42'0 0.0
2014-Dec-19 16:28N 59°27' E 024°42'0 0.0
2014-Dec-19 15:31N 59°27' E 024°42'0 0.0
2014-Dec-19 14:31N 59°27' E 024°42'0 0.0
2014-Dec-19 13:31N 59°27' E 024°42'0 0.0
2014-Dec-19 12:32N 59°27' E 024°42'0 0.0
2014-Dec-19 11:28N 59°27' E 024°42'0 0.0
2014-Dec-19 10:25N 59°27' E 024°42'0 0.0
2014-Dec-19 09:31N 59°27' E 024°42'0 0.0
2014-Dec-19 08:31N 59°27' E 024°42'0 0.0
2014-Dec-19 07:31N 59°27' E 024°42'0 0.0
2014-Dec-19 06:31N 59°27' E 024°42'0 0.0
2014-Dec-19 05:31N 59°27' E 024°42'0 0.0
2014-Dec-19 04:31N 59°27' E 024°42'0 0.0
2014-Dec-19 03:28N 59°27' E 024°42'0 0.0
2014-Dec-19 02:31N 59°27' E 024°42'0 0.0
2014-Dec-19 01:31N 59°27' E 024°42'0 0.0
2014-Dec-19 00:31N 59°27' E 024°42'0 0.0
2014-Dec-18 23:32N 59°27' E 024°42'0 0.0
2014-Dec-18 22:31N 59°27' E 024°42'0 0.0
2014-Dec-18 21:31N 59°27' E 024°42'0 0.0
2014-Dec-18 20:31N 59°27' E 024°42'0 0.0
2014-Dec-18 19:28N 59°27' E 024°42'0 0.0
2014-Dec-18 18:19N 59°27' E 024°42'0 0.0
2014-Dec-18 17:31N 59°27' E 024°42'0 0.0
2014-Dec-18 16:31N 59°27' E 024°42'0 0.0
2014-Dec-18 15:31N 59°27' E 024°42'0 0.0
2014-Dec-18 14:28N 59°27' E 024°42'0 0.0
2014-Dec-18 13:19N 59°27' E 024°42'0 0.0
2014-Dec-18 12:29N 59°27' E 024°42'0 0.0
2014-Dec-18 11:32N 59°27' E 024°42'0 0.0
2014-Dec-18 10:26N 59°27' E 024°42'0 0.0
2014-Dec-18 09:29N 59°27' E 024°42'0 0.0
2014-Dec-18 08:29N 59°27' E 024°42'0 0.0
2014-Dec-18 07:32N 59°27' E 024°42'0 0.0
2014-Dec-18 06:32N 59°27' E 024°42'0 0.0
2014-Dec-18 05:29N 59°27' E 024°42'0 0.0
2014-Dec-18 04:26N 59°27' E 024°42'0 0.0
2014-Dec-18 03:26N 59°27' E 024°42'0 0.0
2014-Dec-18 02:29N 59°27' E 024°42'0 0.0
2014-Dec-18 01:32N 59°27' E 024°42'0 0.0
2014-Dec-18 00:32N 59°27' E 024°42'0 0.0
2014-Dec-17 23:32N 59°27' E 024°42'0 0.0
2014-Dec-17 22:23N 59°27' E 024°42'0 0.0
2014-Dec-17 21:32N 59°27' E 024°42'0 0.0
2014-Dec-17 20:32N 59°27' E 024°42'1 1.0
2014-Dec-17 19:33N 59°28' E 024°44'3 3.1
2014-Dec-17 18:33N 59°29' E 024°39'2 2.2
2014-Dec-17 17:33N 59°27' E 024°40'0 0.0
2014-Dec-17 16:33N 59°27' E 024°40'0 0.0
2014-Dec-17 15:33N 59°27' E 024°40'0 0.0
2014-Dec-17 14:33N 59°27' E 024°40'0 0.0
2014-Dec-17 13:33N 59°27' E 024°40'0 0.0
2014-Dec-17 12:33N 59°27' E 024°40'0 0.0
2014-Dec-17 11:33N 59°27' E 024°40'0 0.0
2014-Dec-17 10:33N 59°27' E 024°40'0 0.0
2014-Dec-17 09:33N 59°27' E 024°40'0 0.0
2014-Dec-17 08:30N 59°27' E 024°40'0 0.1
2014-Dec-17 07:33N 59°27' E 024°40'3 2.5
2014-Dec-17 06:34N 59°30' E 024°40'3 3.0
2014-Dec-17 05:34N 59°28' E 024°45'2 1.5
2014-Dec-17 04:33N 59°27' E 024°42'0 0.0
2014-Dec-17 03:30N 59°27' E 024°42'0 0.0
2014-Dec-17 02:33N 59°27' E 024°42'0 0.0
2014-Dec-17 01:33N 59°27' E 024°42'0 0.0
2014-Dec-17 00:33N 59°27' E 024°42'0 0.0
2014-Dec-16 23:30N 59°27' E 024°42'0 0.0
2014-Dec-16 22:33N 59°27' E 024°42'0 0.0
2014-Dec-16 21:33N 59°27' E 024°42'0 0.0
2014-Dec-16 20:33N 59°27' E 024°42'0 0.0
2014-Dec-16 19:33N 59°27' E 024°42'0 0.0
2014-Dec-16 18:33N 59°27' E 024°42'0 0.0
2014-Dec-16 17:33N 59°27' E 024°42'0 0.0
2014-Dec-16 16:33N 59°27' E 024°42'0 0.0
2014-Dec-16 15:33N 59°27' E 024°42'0 0.0
2014-Dec-16 14:30N 59°27' E 024°42'0 0.0
2014-Dec-16 13:33N 59°27' E 024°42'0 0.0
2014-Dec-16 12:33N 59°27' E 024°42'0 0.0
2014-Dec-16 11:30N 59°27' E 024°42'0 0.0
2014-Dec-16 10:33N 59°27' E 024°42'0 0.0
2014-Dec-16 09:32N 59°27' E 024°42'0 0.0
2014-Dec-16 08:30N 59°27' E 024°42'0 0.0
2014-Dec-16 07:33N 59°27' E 024°42'0 0.0
2014-Dec-16 06:33N 59°27' E 024°42'0 0.0
2014-Dec-16 05:33N 59°27' E 024°42'0 0.0
2014-Dec-16 04:31N 59°27' E 024°42'0 0.0
2014-Dec-16 03:30N 59°27' E 024°42'0 0.0
2014-Dec-16 02:33N 59°27' E 024°42'0 0.0
2014-Dec-16 01:10N 59°27' E 024°42'0 0.0
2014-Dec-15 23:18N 59°27' E 024°42'0 0.0
2014-Dec-15 22:30N 59°27' E 024°42'0 0.0
2014-Dec-15 21:33N 59°27' E 024°42'0 0.0
2014-Dec-15 20:33N 59°27' E 024°42'0 0.0
2014-Dec-15 19:30N 59°27' E 024°42'0 0.0
2014-Dec-15 18:30N 59°27' E 024°42'0 0.0
2014-Dec-15 17:33N 59°27' E 024°42'0 0.0
2014-Dec-15 16:33N 59°27' E 024°42'0 0.0
2014-Dec-15 15:31N 59°27' E 024°42'0 0.0
2014-Dec-15 14:31N 59°27' E 024°42'0 0.0
2014-Dec-15 13:31N 59°27' E 024°42'0 0.0
2014-Dec-15 12:31N 59°27' E 024°42'0 0.0
2014-Dec-15 11:31N 59°27' E 024°42'0 0.0
2014-Dec-15 10:31N 59°27' E 024°42'0 0.0
2014-Dec-15 09:31N 59°27' E 024°42'0 0.0
2014-Dec-15 08:28N 59°27' E 024°42'0 0.0
2014-Dec-15 07:31N 59°27' E 024°42'0 0.0
2014-Dec-15 06:31N 59°27' E 024°42'0 0.0
2014-Dec-15 05:31N 59°27' E 024°42'0 0.0
2014-Dec-15 04:28N 59°27' E 024°42'0 0.0
2014-Dec-15 03:31N 59°27' E 024°42'0 0.0
2014-Dec-15 02:31N 59°27' E 024°42'0 0.0
2014-Dec-15 01:28N 59°27' E 024°42'0 0.0
2014-Dec-15 00:31N 59°27' E 024°42'0 0.0
2014-Dec-14 23:31N 59°27' E 024°42'0 0.0
2014-Dec-14 22:31N 59°27' E 024°42'0 0.0
2014-Dec-14 21:25N 59°27' E 024°42'0 0.0
2014-Dec-14 20:28N 59°27' E 024°42'0 0.0
2014-Dec-14 19:31N 59°27' E 024°42'0 0.0
2014-Dec-14 18:31N 59°27' E 024°42'0 0.0
2014-Dec-14 17:28N 59°27' E 024°42'0 0.0
2014-Dec-14 16:31N 59°27' E 024°42'0 0.0
2014-Dec-14 15:28N 59°27' E 024°42'0 0.0
2014-Dec-14 14:31N 59°27' E 024°42'0 0.0
2014-Dec-14 13:31N 59°27' E 024°42'0 0.0
2014-Dec-14 12:31N 59°27' E 024°42'0 0.0
2014-Dec-14 11:16N 59°27' E 024°42'0 0.0
2014-Dec-14 10:25N 59°27' E 024°42'0 0.0
2014-Dec-14 09:25N 59°27' E 024°42'0 0.0
2014-Dec-14 08:31N 59°27' E 024°42'0 0.0
2014-Dec-14 07:31N 59°27' E 024°42'0 0.0
2014-Dec-14 06:31N 59°27' E 024°42'0 0.0
2014-Dec-14 05:31N 59°27' E 024°42'0 0.0
2014-Dec-14 04:31N 59°27' E 024°42'0 0.0
2014-Dec-14 03:31N 59°27' E 024°42'0 0.0
2014-Dec-14 02:25N 59°27' E 024°42'0 0.0
2014-Dec-14 01:31N 59°27' E 024°42'0 0.0
2014-Dec-14 00:31N 59°27' E 024°42'0 0.0
2014-Dec-13 23:31N 59°27' E 024°42'0 0.0
2014-Dec-13 22:25N 59°27' E 024°42'0 0.0
2014-Dec-13 21:31N 59°27' E 024°42'0 0.0
2014-Dec-13 20:31N 59°27' E 024°42'0 0.0
2014-Dec-13 19:13N 59°27' E 024°42'0 0.0
2014-Dec-13 18:31N 59°27' E 024°42'0 0.0
2014-Dec-13 17:31N 59°27' E 024°42'0 0.0
2014-Dec-13 16:25N 59°27' E 024°42'0 0.0
2014-Dec-13 15:31N 59°27' E 024°42'0 0.0
2014-Dec-13 14:25N 59°27' E 024°42'0 0.0
2014-Dec-13 13:31N 59°27' E 024°42'0 0.0
2014-Dec-13 12:28N 59°27' E 024°42'0 0.0
2014-Dec-13 11:31N 59°27' E 024°42'0 0.0
2014-Dec-13 10:31N 59°27' E 024°42'0 0.0
2014-Dec-13 09:31N 59°27' E 024°42'0 0.0
2014-Dec-13 08:31N 59°27' E 024°42'0 0.0
2014-Dec-13 07:31N 59°27' E 024°42'0 0.0
2014-Dec-13 06:28N 59°27' E 024°42'0 0.0
2014-Dec-13 05:31N 59°27' E 024°42'0 0.0
2014-Dec-13 04:31N 59°27' E 024°42'0 0.0
2014-Dec-13 03:25N 59°27' E 024°42'0 0.0
2014-Dec-13 02:22N 59°27' E 024°42'0 0.0
2014-Dec-13 01:31N 59°27' E 024°42'0 0.0
2014-Dec-12 21:31N 59°27' E 024°42'0 0.0
2014-Dec-12 20:31N 59°27' E 024°42'0 0.0
2014-Dec-12 19:31N 59°27' E 024°42'0 0.0
2014-Dec-12 18:31N 59°27' E 024°42'0 0.0
2014-Dec-12 17:31N 59°27' E 024°42'0 0.0
2014-Dec-12 16:31N 59°27' E 024°42'0 0.0
2014-Dec-12 15:31N 59°27' E 024°42'0 0.0
2014-Dec-12 14:25N 59°27' E 024°42'0 0.0
2014-Dec-12 13:31N 59°27' E 024°42'0 0.5
2014-Dec-12 12:33N 59°28' E 024°43'3 2.6
2014-Dec-12 11:33N 59°30' E 024°41'3 1.4
2014-Dec-12 09:33N 59°27' E 024°39'2 1.9
2014-Dec-12 08:28N 59°29' E 024°39'2 2.0
2014-Dec-12 07:34N 59°30' E 024°43'3 2.5
2014-Dec-12 06:30N 59°27' E 024°42'0 0.0
2014-Dec-12 05:28N 59°27' E 024°42'0 0.0
2014-Dec-12 04:25N 59°27' E 024°42'0 0.0
2014-Dec-12 03:28N 59°27' E 024°42'0 0.0
2014-Dec-12 02:28N 59°27' E 024°42'0 0.0
2014-Dec-12 01:31N 59°27' E 024°42'0 0.0
2014-Dec-12 00:16N 59°27' E 024°42'0 0.0
2014-Dec-11 23:31N 59°27' E 024°42'0 0.0
2014-Dec-11 22:31N 59°27' E 024°42'0 0.0
2014-Dec-11 21:28N 59°27' E 024°42'0 0.0
2014-Dec-11 20:31N 59°27' E 024°42'0 0.0
2014-Dec-11 19:31N 59°27' E 024°42'0 0.0
2014-Dec-11 18:31N 59°27' E 024°42'0 0.0
2014-Dec-11 17:31N 59°27' E 024°42'0 0.0
2014-Dec-11 16:31N 59°27' E 024°42'0 0.0
2014-Dec-11 15:31N 59°27' E 024°42'0 0.0
2014-Dec-11 14:25N 59°27' E 024°42'0 0.0
2014-Dec-11 13:31N 59°27' E 024°42'0 0.0
2014-Dec-11 12:31N 59°27' E 024°42'0 0.0
2014-Dec-11 11:31N 59°27' E 024°42'0 0.0
2014-Dec-11 10:31N 59°27' E 024°42'0 0.0
2014-Dec-11 09:30N 59°27' E 024°42'0 0.0
2014-Dec-11 08:33N 59°27' E 024°42'0 0.0
2014-Dec-11 07:33N 59°27' E 024°42'0 0.0
2014-Dec-11 06:33N 59°27' E 024°42'0 0.0
2014-Dec-11 05:33N 59°27' E 024°42'0 0.0
2014-Dec-11 04:33N 59°27' E 024°42'0 0.0
2014-Dec-11 03:33N 59°27' E 024°42'0 0.0
2014-Dec-11 02:33N 59°27' E 024°42'0 0.0
2014-Dec-11 01:30N 59°27' E 024°42'0 0.0
2014-Dec-11 00:33N 59°27' E 024°42'0 0.0
2014-Dec-10 23:30N 59°27' E 024°42'0 0.0
2014-Dec-10 22:33N 59°27' E 024°42'0 0.0
2014-Dec-10 21:30N 59°27' E 024°42'0 0.0
2014-Dec-10 20:30N 59°27' E 024°42'0 0.0
2014-Dec-10 19:33N 59°27' E 024°42'0 0.0
2014-Dec-10 18:33N 59°27' E 024°42'0 0.0
2014-Dec-10 17:33N 59°27' E 024°42'0 0.0
2014-Dec-10 16:33N 59°27' E 024°42'0 0.0
2014-Dec-10 15:33N 59°27' E 024°42'0 0.0
2014-Dec-10 14:30N 59°27' E 024°42'0 0.0
2014-Dec-10 13:33N 59°27' E 024°42'0 0.0
2014-Dec-10 12:33N 59°27' E 024°42'0 0.0
2014-Dec-10 11:33N 59°27' E 024°42'0 0.0
2014-Dec-10 10:33N 59°27' E 024°42'0 0.0
2014-Dec-10 09:33N 59°27' E 024°42'0 0.0
2014-Dec-10 08:30N 59°27' E 024°42'0 0.0
2014-Dec-10 07:33N 59°27' E 024°42'  
Track history (hours):
 
Tides and Currents Weather Stations Pressure Air Temp Water Temp Dewpoint Dewpoint Depression Visibility Wind Speed Wind Dir Waves Ship Positions

Viiking

Last reported at 2014-Dec-20 07:31 UTC. Time now 2014-Dec-20 08:04 UTC.
Position N 59°27' E 024°42'.

Length 40 m; draft 2 m.

Type: Other ship. MMSI: 276342000.

Date/timePositionNaut miles runAvg speedWind from/ knotsBaromVisibWave heightAir tempDewpointWater temp
2014-Dec-20 07:31N 59°27' E 024°42'0 0.0
2014-Dec-20 06:28N 59°27' E 024°42'0 0.0
2014-Dec-20 05:28N 59°27' E 024°42'0 0.0
2014-Dec-20 04:31N 59°27' E 024°42'0 0.0
2014-Dec-20 03:31N 59°27' E 024°42'0 0.0
2014-Dec-20 02:32N 59°27' E 024°42'0 0.0
2014-Dec-20 01:31N 59°27' E 024°42'0 0.0
2014-Dec-20 00:31N 59°27' E 024°42'0 0.0
2014-Dec-19 23:29N 59°27' E 024°42'0 0.0
2014-Dec-19 22:31N 59°27' E 024°42'0 0.0
2014-Dec-19 21:28N 59°27' E 024°42'0 0.0
2014-Dec-19 20:31N 59°27' E 024°42'0 0.0
2014-Dec-19 19:32N 59°27' E 024°42'0 0.0
2014-Dec-19 18:31N 59°27' E 024°42'0 0.0
2014-Dec-19 17:31N 59°27' E 024°42'0 0.0
2014-Dec-19 16:28N 59°27' E 024°42'0 0.0
2014-Dec-19 15:31N 59°27' E 024°42'0 0.0
2014-Dec-19 14:31N 59°27' E 024°42'0 0.0
2014-Dec-19 13:31N 59°27' E 024°42'0 0.0
2014-Dec-19 12:32N 59°27' E 024°42'0 0.0
2014-Dec-19 11:28N 59°27' E 024°42'0 0.0
2014-Dec-19 10:25N 59°27' E 024°42'0 0.0
2014-Dec-19 09:31N 59°27' E 024°42'0 0.0
2014-Dec-19 08:31N 59°27' E 024°42'0 0.0
2014-Dec-19 07:31N 59°27' E 024°42'0 0.0
2014-Dec-19 06:31N 59°27' E 024°42'0 0.0
2014-Dec-19 05:31N 59°27' E 024°42'0 0.0
2014-Dec-19 04:31N 59°27' E 024°42'0 0.0
2014-Dec-19 03:28N 59°27' E 024°42'0 0.0
2014-Dec-19 02:31N 59°27' E 024°42'0 0.0
2014-Dec-19 01:31N 59°27' E 024°42'0 0.0
2014-Dec-19 00:31N 59°27' E 024°42'0 0.0
2014-Dec-18 23:32N 59°27' E 024°42'0 0.0
2014-Dec-18 22:31N 59°27' E 024°42'0 0.0
2014-Dec-18 21:31N 59°27' E 024°42'0 0.0
2014-Dec-18 20:31N 59°27' E 024°42'0 0.0
2014-Dec-18 19:28N 59°27' E 024°42'0 0.0
2014-Dec-18 18:19N 59°27' E 024°42'0 0.0
2014-Dec-18 17:31N 59°27' E 024°42'0 0.0
2014-Dec-18 16:31N 59°27' E 024°42'0 0.0
2014-Dec-18 15:31N 59°27' E 024°42'0 0.0
2014-Dec-18 14:28N 59°27' E 024°42'0 0.0
2014-Dec-18 13:19N 59°27' E 024°42'0 0.0
2014-Dec-18 12:29N 59°27' E 024°42'0 0.0
2014-Dec-18 11:32N 59°27' E 024°42'0 0.0
2014-Dec-18 10:26N 59°27' E 024°42'0 0.0
2014-Dec-18 09:29N 59°27' E 024°42'0 0.0
2014-Dec-18 08:29N 59°27' E 024°42'0 0.0
2014-Dec-18 07:32N 59°27' E 024°42'0 0.0
2014-Dec-18 06:32N 59°27' E 024°42'0 0.0
2014-Dec-18 05:29N 59°27' E 024°42'0 0.0
2014-Dec-18 04:26N 59°27' E 024°42'0 0.0
2014-Dec-18 03:26N 59°27' E 024°42'0 0.0
2014-Dec-18 02:29N 59°27' E 024°42'0 0.0
2014-Dec-18 01:32N 59°27' E 024°42'0 0.0
2014-Dec-18 00:32N 59°27' E 024°42'0 0.0
2014-Dec-17 23:32N 59°27' E 024°42'0 0.0
2014-Dec-17 22:23N 59°27' E 024°42'0 0.0
2014-Dec-17 21:32N 59°27' E 024°42'0 0.0
2014-Dec-17 20:32N 59°27' E 024°42'1 1.0
2014-Dec-17 19:33N 59°28' E 024°44'3 3.1
2014-Dec-17 18:33N 59°29' E 024°39'2 2.2
2014-Dec-17 17:33N 59°27' E 024°40'0 0.0
2014-Dec-17 16:33N 59°27' E 024°40'0 0.0
2014-Dec-17 15:33N 59°27' E 024°40'0 0.0
2014-Dec-17 14:33N 59°27' E 024°40'0 0.0
2014-Dec-17 13:33N 59°27' E 024°40'0 0.0
2014-Dec-17 12:33N 59°27' E 024°40'0 0.0
2014-Dec-17 11:33N 59°27' E 024°40'0 0.0
2014-Dec-17 10:33N 59°27' E 024°40'0 0.0
2014-Dec-17 09:33N 59°27' E 024°40'0 0.0
2014-Dec-17 08:30N 59°27' E 024°40'0 0.1
2014-Dec-17 07:33N 59°27' E 024°40'3 2.5
2014-Dec-17 06:34N 59°30' E 024°40'3 3.0
2014-Dec-17 05:34N 59°28' E 024°45'2 1.5
2014-Dec-17 04:33N 59°27' E 024°42'0 0.0
2014-Dec-17 03:30N 59°27' E 024°42'0 0.0
2014-Dec-17 02:33N 59°27' E 024°42'0 0.0
2014-Dec-17 01:33N 59°27' E 024°42'0 0.0
2014-Dec-17 00:33N 59°27' E 024°42'0 0.0
2014-Dec-16 23:30N 59°27' E 024°42'0 0.0
2014-Dec-16 22:33N 59°27' E 024°42'0 0.0
2014-Dec-16 21:33N 59°27' E 024°42'0 0.0
2014-Dec-16 20:33N 59°27' E 024°42'0 0.0
2014-Dec-16 19:33N 59°27' E 024°42'0 0.0
2014-Dec-16 18:33N 59°27' E 024°42'0 0.0
2014-Dec-16 17:33N 59°27' E 024°42'0 0.0
2014-Dec-16 16:33N 59°27' E 024°42'0 0.0
2014-Dec-16 15:33N 59°27' E 024°42'0 0.0
2014-Dec-16 14:30N 59°27' E 024°42'0 0.0
2014-Dec-16 13:33N 59°27' E 024°42'0 0.0
2014-Dec-16 12:33N 59°27' E 024°42'0 0.0
2014-Dec-16 11:30N 59°27' E 024°42'0 0.0
2014-Dec-16 10:33N 59°27' E 024°42'0 0.0
2014-Dec-16 09:32N 59°27' E 024°42'0 0.0
2014-Dec-16 08:30N 59°27' E 024°42'0 0.0
2014-Dec-16 07:33N 59°27' E 024°42'0 0.0
2014-Dec-16 06:33N 59°27' E 024°42'0 0.0
2014-Dec-16 05:33N 59°27' E 024°42'0 0.0
2014-Dec-16 04:31N 59°27' E 024°42'0 0.0
2014-Dec-16 03:30N 59°27' E 024°42'0 0.0
2014-Dec-16 02:33N 59°27' E 024°42'0 0.0
2014-Dec-16 01:10N 59°27' E 024°42'0 0.0
2014-Dec-15 23:18N 59°27' E 024°42'0 0.0
2014-Dec-15 22:30N 59°27' E 024°42'0 0.0
2014-Dec-15 21:33N 59°27' E 024°42'0 0.0
2014-Dec-15 20:33N 59°27' E 024°42'0 0.0
2014-Dec-15 19:30N 59°27' E 024°42'0 0.0
2014-Dec-15 18:30N 59°27' E 024°42'0 0.0
2014-Dec-15 17:33N 59°27' E 024°42'0 0.0
2014-Dec-15 16:33N 59°27' E 024°42'0 0.0
2014-Dec-15 15:31N 59°27' E 024°42'0 0.0
2014-Dec-15 14:31N 59°27' E 024°42'0 0.0
2014-Dec-15 13:31N 59°27' E 024°42'0 0.0
2014-Dec-15 12:31N 59°27' E 024°42'0 0.0
2014-Dec-15 11:31N 59°27' E 024°42'0 0.0
2014-Dec-15 10:31N 59°27' E 024°42'0 0.0
2014-Dec-15 09:31N 59°27' E 024°42'0 0.0
2014-Dec-15 08:28N 59°27' E 024°42'0 0.0
2014-Dec-15 07:31N 59°27' E 024°42'0 0.0
2014-Dec-15 06:31N 59°27' E 024°42'0 0.0
2014-Dec-15 05:31N 59°27' E 024°42'0 0.0
2014-Dec-15 04:28N 59°27' E 024°42'0 0.0
2014-Dec-15 03:31N 59°27' E 024°42'0 0.0
2014-Dec-15 02:31N 59°27' E 024°42'0 0.0
2014-Dec-15 01:28N 59°27' E 024°42'0 0.0
2014-Dec-15 00:31N 59°27' E 024°42'0 0.0
2014-Dec-14 23:31N 59°27' E 024°42'0 0.0
2014-Dec-14 22:31N 59°27' E 024°42'0 0.0
2014-Dec-14 21:25N 59°27' E 024°42'0 0.0
2014-Dec-14 20:28N 59°27' E 024°42'0 0.0
2014-Dec-14 19:31N 59°27' E 024°42'0 0.0
2014-Dec-14 18:31N 59°27' E 024°42'0 0.0
2014-Dec-14 17:28N 59°27' E 024°42'0 0.0
2014-Dec-14 16:31N 59°27' E 024°42'0 0.0
2014-Dec-14 15:28N 59°27' E 024°42'0 0.0
2014-Dec-14 14:31N 59°27' E 024°42'0 0.0
2014-Dec-14 13:31N 59°27' E 024°42'0 0.0
2014-Dec-14 12:31N 59°27' E 024°42'0 0.0
2014-Dec-14 11:16N 59°27' E 024°42'0 0.0
2014-Dec-14 10:25N 59°27' E 024°42'0 0.0
2014-Dec-14 09:25N 59°27' E 024°42'0 0.0
2014-Dec-14 08:31N 59°27' E 024°42'0 0.0
2014-Dec-14 07:31N 59°27' E 024°42'0 0.0
2014-Dec-14 06:31N 59°27' E 024°42'0 0.0
2014-Dec-14 05:31N 59°27' E 024°42'0 0.0
2014-Dec-14 04:31N 59°27' E 024°42'0 0.0
2014-Dec-14 03:31N 59°27' E 024°42'0 0.0
2014-Dec-14 02:25N 59°27' E 024°42'0 0.0
2014-Dec-14 01:31N 59°27' E 024°42'0 0.0
2014-Dec-14 00:31N 59°27' E 024°42'0 0.0
2014-Dec-13 23:31N 59°27' E 024°42'0 0.0
2014-Dec-13 22:25N 59°27' E 024°42'0 0.0
2014-Dec-13 21:31N 59°27' E 024°42'0 0.0
2014-Dec-13 20:31N 59°27' E 024°42'0 0.0
2014-Dec-13 19:13N 59°27' E 024°42'0 0.0
2014-Dec-13 18:31N 59°27' E 024°42'0 0.0
2014-Dec-13 17:31N 59°27' E 024°42'0 0.0
2014-Dec-13 16:25N 59°27' E 024°42'0 0.0
2014-Dec-13 15:31N 59°27' E 024°42'0 0.0
2014-Dec-13 14:25N 59°27' E 024°42'0 0.0
2014-Dec-13 13:31N 59°27' E 024°42'0 0.0
2014-Dec-13 12:28N 59°27' E 024°42'0 0.0
2014-Dec-13 11:31N 59°27' E 024°42'0 0.0
2014-Dec-13 10:31N 59°27' E 024°42'0 0.0
2014-Dec-13 09:31N 59°27' E 024°42'0 0.0
2014-Dec-13 08:31N 59°27' E 024°42'0 0.0
2014-Dec-13 07:31N 59°27' E 024°42'0 0.0
2014-Dec-13 06:28N 59°27' E 024°42'0 0.0
2014-Dec-13 05:31N 59°27' E 024°42'0 0.0
2014-Dec-13 04:31N 59°27' E 024°42'0 0.0
2014-Dec-13 03:25N 59°27' E 024°42'0 0.0
2014-Dec-13 02:22N 59°27' E 024°42'0 0.0
2014-Dec-13 01:31N 59°27' E 024°42'0 0.0
2014-Dec-12 21:31N 59°27' E 024°42'0 0.0
2014-Dec-12 20:31N 59°27' E 024°42'0 0.0
2014-Dec-12 19:31N 59°27' E 024°42'0 0.0
2014-Dec-12 18:31N 59°27' E 024°42'0 0.0
2014-Dec-12 17:31N 59°27' E 024°42'0 0.0
2014-Dec-12 16:31N 59°27' E 024°42'0 0.0
2014-Dec-12 15:31N 59°27' E 024°42'0 0.0
2014-Dec-12 14:25N 59°27' E 024°42'0 0.0
2014-Dec-12 13:31N 59°27' E 024°42'0 0.5
2014-Dec-12 12:33N 59°28' E 024°43'3 2.6
2014-Dec-12 11:33N 59°30' E 024°41'3 1.4
2014-Dec-12 09:33N 59°27' E 024°39'2 1.9
2014-Dec-12 08:28N 59°29' E 024°39'2 2.0
2014-Dec-12 07:34N 59°30' E 024°43'3 2.5
2014-Dec-12 06:30N 59°27' E 024°42'0 0.0
2014-Dec-12 05:28N 59°27' E 024°42'0 0.0
2014-Dec-12 04:25N 59°27' E 024°42'0 0.0
2014-Dec-12 03:28N 59°27' E 024°42'0 0.0
2014-Dec-12 02:28N 59°27' E 024°42'0 0.0
2014-Dec-12 01:31N 59°27' E 024°42'0 0.0
2014-Dec-12 00:16N 59°27' E 024°42'0 0.0
2014-Dec-11 23:31N 59°27' E 024°42'0 0.0
2014-Dec-11 22:31N 59°27' E 024°42'0 0.0
2014-Dec-11 21:28N 59°27' E 024°42'0 0.0
2014-Dec-11 20:31N 59°27' E 024°42'0 0.0
2014-Dec-11 19:31N 59°27' E 024°42'0 0.0
2014-Dec-11 18:31N 59°27' E 024°42'0 0.0
2014-Dec-11 17:31N 59°27' E 024°42'0 0.0
2014-Dec-11 16:31N 59°27' E 024°42'0 0.0
2014-Dec-11 15:31N 59°27' E 024°42'0 0.0
2014-Dec-11 14:25N 59°27' E 024°42'0 0.0
2014-Dec-11 13:31N 59°27' E 024°42'0 0.0
2014-Dec-11 12:31N 59°27' E 024°42'0 0.0
2014-Dec-11 11:31N 59°27' E 024°42'0 0.0
2014-Dec-11 10:31N 59°27' E 024°42'0 0.0
2014-Dec-11 09:30N 59°27' E 024°42'0 0.0
2014-Dec-11 08:33N 59°27' E 024°42'0 0.0
2014-Dec-11 07:33N 59°27' E 024°42'0 0.0
2014-Dec-11 06:33N 59°27' E 024°42'0 0.0
2014-Dec-11 05:33N 59°27' E 024°42'0 0.0
2014-Dec-11 04:33N 59°27' E 024°42'0 0.0
2014-Dec-11 03:33N 59°27' E 024°42'0 0.0
2014-Dec-11 02:33N 59°27' E 024°42'0 0.0
2014-Dec-11 01:30N 59°27' E 024°42'0 0.0
2014-Dec-11 00:33N 59°27' E 024°42'0 0.0
2014-Dec-10 23:30N 59°27' E 024°42'0 0.0
2014-Dec-10 22:33N 59°27' E 024°42'0 0.0
2014-Dec-10 21:30N 59°27' E 024°42'0 0.0
2014-Dec-10 20:30N 59°27' E 024°42'0 0.0
2014-Dec-10 19:33N 59°27' E 024°42'0 0.0
2014-Dec-10 18:33N 59°27' E 024°42'0 0.0
2014-Dec-10 17:33N 59°27' E 024°42'0 0.0
2014-Dec-10 16:33N 59°27' E 024°42'0 0.0
2014-Dec-10 15:33N 59°27' E 024°42'0 0.0
2014-Dec-10 14:30N 59°27' E 024°42'0 0.0
2014-Dec-10 13:33N 59°27' E 024°42'0 0.0
2014-Dec-10 12:33N 59°27' E 024°42'0 0.0
2014-Dec-10 11:33N 59°27' E 024°42'0 0.0
2014-Dec-10 10:33N 59°27' E 024°42'0 0.0
2014-Dec-10 09:33N 59°27' E 024°42'0 0.0
2014-Dec-10 08:30N 59°27' E 024°42'0 0.0
2014-Dec-10 07:33N 59°27' E 024°42'  

Dump ship's entire track history